Time;durP1;ratioP1;P1;durP2;ratioP2;P2;SDS_P1;SDS_P2;PMS_P1;PMS_P2;Temp;Humidity;BMP_temperature;BMP_pressure;BME280_temperature;BME280_humidity;BME280_pressure;Samples;Min_cycle;Max_cycle;Signal;HPM_P1;HPM_P2
2022/10/01 00:01:07;;;;;;;25.60;10.48;;;5.40;99.90;;;;;;5050018;28;20508;-70
2022/10/01 00:03:35;;;;;;;21.40;9.77;;;5.50;99.90;;;;;;5050838;28;20021;-64
2022/10/01 00:06:19;;;;;;;26.33;10.82;;;5.50;99.90;;;;;;5050804;28;20465;-68
2022/10/01 00:08:47;;;;;;;23.95;10.18;;;5.50;99.90;;;;;;5050812;28;20650;-64
2022/10/01 00:11:22;;;;;;;22.05;10.55;;;5.50;99.90;;;;;;5049923;28;20515;-64
2022/10/01 00:13:49;;;;;;;20.65;10.15;;;5.50;99.90;;;;;;5050665;28;20108;-64
2022/10/01 00:16:18;;;;;;;21.42;10.85;;;5.50;99.90;;;;;;5049718;28;20810;-64
2022/10/01 00:18:45;;;;;;;23.15;10.60;;;5.60;99.90;;;;;;5050418;28;20021;-64
2022/10/01 00:21:17;;;;;;;19.63;9.02;;;5.60;99.90;;;;;;5049165;28;20139;-64
2022/10/01 00:23:42;;;;;;;21.27;10.13;;;5.60;99.90;;;;;;5050491;28;20035;-65
2022/10/01 00:26:14;;;;;;;25.65;10.13;;;5.60;99.90;;;;;;5049370;28;20033;-65
2022/10/01 00:28:41;;;;;;;20.55;8.90;;;5.50;99.90;;;;;;5050482;28;20029;-66
2022/10/01 00:31:08;;;;;;;18.90;9.35;;;5.40;99.90;;;;;;5049548;28;20041;-68
2022/10/01 00:33:35;;;;;;;22.58;9.60;;;5.40;99.90;;;;;;5049917;28;20036;-64
2022/10/01 00:36:00;;;;;;;21.25;10.23;;;5.40;99.90;;;;;;5050186;28;20136;-65
2022/10/01 00:38:27;;;;;;;23.85;9.95;;;5.40;99.90;;;;;;5049442;28;20131;-63
2022/10/01 00:40:53;;;;;;;20.33;10.43;;;5.40;99.90;;;;;;5050013;28;20090;-64
2022/10/01 00:43:24;;;;;;;20.10;9.80;;;5.50;99.90;;;;;;5048302;28;20469;-64
2022/10/01 00:45:53;;;;;;;18.60;9.20;;;5.50;99.90;;;;;;5050186;28;20037;-65
2022/10/01 00:48:20;;;;;;;19.75;9.60;;;5.50;99.90;;;;;;5049190;28;20059;-64
2022/10/01 00:50:48;;;;;;;21.80;9.52;;;5.50;99.90;;;;;;5048311;28;20033;-64
2022/10/01 00:53:16;;;;;;;20.40;9.65;;;5.40;99.90;;;;;;5048960;28;20460;-64
2022/10/01 00:55:54;;;;;;;21.75;10.38;;;5.50;99.90;;;;;;5049947;28;20021;-64
2022/10/01 00:58:22;;;;;;;22.70;9.85;;;5.50;99.90;;;;;;5048764;28;20052;-63
2022/10/01 01:00:49;;;;;;;22.38;9.80;;;5.50;99.90;;;;;;5049263;28;20040;-64
2022/10/01 01:03:15;;;;;;;23.10;10.90;;;5.50;99.90;;;;;;5048973;28;20124;-64
2022/10/01 01:05:42;;;;;;;20.20;9.70;;;5.60;99.90;;;;;;5049785;28;20147;-65
2022/10/01 01:08:09;;;;;;;21.05;10.20;;;5.50;99.90;;;;;;5048763;28;20458;-68
2022/10/01 01:10:43;;;;;;;20.75;9.77;;;5.50;99.90;;;;;;5049687;28;20037;-65
2022/10/01 01:13:24;;;;;;;20.02;9.52;;;5.50;99.90;;;;;;5048619;28;20473;-67
2022/10/01 01:16:11;;;;;;;24.10;10.02;;;5.40;99.90;;;;;;5039897;28;20078;-64
2022/10/01 01:18:39;;;;;;;23.38;10.05;;;5.40;99.90;;;;;;5049585;28;20029;-64
2022/10/01 01:21:25;;;;;;;21.02;10.02;;;5.40;99.90;;;;;;5047776;28;20075;-70
2022/10/01 01:24:00;;;;;;;19.88;9.95;;;5.40;99.90;;;;;;5049305;28;20394;-65
2022/10/01 01:27:01;;;;;;;19.73;9.40;;;5.30;99.90;;;;;;5048655;28;20029;-65
2022/10/01 01:29:35;;;;;;;21.58;10.35;;;5.30;99.90;;;;;;5048621;28;20162;-65
2022/10/01 01:32:11;;;;;;;22.65;10.27;;;5.30;99.90;;;;;;5049063;28;20036;-65
2022/10/01 01:34:40;;;;;;;22.17;10.85;;;5.30;99.90;;;;;;5049433;28;20033;-64
2022/10/01 01:37:11;;;;;;;22.52;10.32;;;5.20;99.90;;;;;;5049557;28;20097;-68
2022/10/01 01:39:41;;;;;;;20.58;9.40;;;5.30;99.90;;;;;;5049429;28;20423;-64
2022/10/01 01:42:12;;;;;;;;;;;5.30;99.90;;;;;;5049563;28;20133;-68
2022/10/01 01:44:42;;;;;;;26.08;10.88;;;5.30;99.90;;;;;;5049428;28;19959;-65
2022/10/01 01:47:10;;;;;;;19.27;7.93;;;5.40;99.90;;;;;;5048860;28;20149;-67
2022/10/01 01:49:38;;;;;;;21.55;10.07;;;5.40;99.90;;;;;;5049042;28;20516;-66
2022/10/01 01:52:14;;;;;;;22.67;9.77;;;5.30;99.90;;;;;;5049156;28;20056;-64
2022/10/01 01:54:48;;;;;;;18.70;9.10;;;5.20;99.90;;;;;;5052749;28;20158;-64
2022/10/01 01:57:17;;;;;;;22.40;9.90;;;5.20;99.90;;;;;;5052571;28;20029;-64
2022/10/01 01:59:43;;;;;;;19.20;9.50;;;5.10;99.90;;;;;;5053034;28;20305;-65
2022/10/01 02:02:17;;;;;;;21.52;9.93;;;5.00;99.90;;;;;;5052645;28;20487;-69
2022/10/01 02:04:56;;;;;;;24.73;10.05;;;5.00;99.90;;;;;;5053129;28;20032;-64
2022/10/01 02:07:33;;;;;;;26.65;10.65;;;5.00;99.90;;;;;;5051128;28;20024;-64
2022/10/01 02:10:30;;;;;;;20.73;9.82;;;5.00;99.90;;;;;;5053032;28;20028;-64
2022/10/01 02:13:34;;;;;;;21.48;9.60;;;5.00;99.90;;;;;;5052998;28;20031;-65
2022/10/01 02:16:23;;;;;;;20.63;9.82;;;5.00;99.90;;;;;;5051734;28;20040;-64
2022/10/01 02:19:14;;;;;;;21.38;10.65;;;5.10;99.90;;;;;;5052586;28;20048;-64
2022/10/01 02:21:59;;;;;;;21.08;9.63;;;5.10;99.90;;;;;;5052894;28;20068;-64
2022/10/01 02:24:44;;;;;;;19.27;9.52;;;5.10;99.90;;;;;;5052000;28;20025;-64
2022/10/01 02:27:22;;;;;;;25.73;9.98;;;5.10;99.90;;;;;;5052564;28;20036;-67
2022/10/01 02:29:49;;;;;;;26.65;10.88;;;5.10;99.90;;;;;;5052655;28;20040;-63
2022/10/01 02:32:17;;;;;;;23.90;10.68;;;5.20;99.90;;;;;;5051785;28;20040;-65
2022/10/01 02:34:44;;;;;;;20.98;9.48;;;5.20;99.90;;;;;;5052482;28;20089;-65
2022/10/01 02:37:10;;;;;;;22.13;10.48;;;5.10;99.90;;;;;;5052327;28;20021;-70
2022/10/01 02:39:40;;;;;;;21.70;9.40;;;5.10;99.90;;;;;;5051928;28;20061;-65
2022/10/01 02:42:10;;;;;;;23.52;10.32;;;5.00;99.90;;;;;;5050843;28;20072;-66
2022/10/01 02:44:39;;;;;;;24.25;10.80;;;5.00;99.90;;;;;;5051519;28;20443;-66
2022/10/01 02:47:32;;;;;;;23.30;9.73;;;4.90;99.90;;;;;;5052166;28;20025;-64
2022/10/01 02:49:57;;;;;;;19.65;9.93;;;5.00;99.90;;;;;;5052030;28;20037;-64
2022/10/01 02:52:23;;;;;;;24.48;10.60;;;4.90;99.90;;;;;;5051339;28;20048;-64
2022/10/01 02:54:50;;;;;;;22.55;10.55;;;5.00;99.90;;;;;;5052200;28;20025;-64
2022/10/01 02:57:25;;;;;;;21.15;9.93;;;5.00;99.90;;;;;;5050987;28;20037;-64
2022/10/01 02:59:53;;;;;;;21.63;10.48;;;5.00;99.90;;;;;;5051855;28;20056;-64
2022/10/01 03:02:21;;;;;;;21.38;10.18;;;5.00;99.90;;;;;;5051140;28;20036;-64
2022/10/01 03:04:47;;;;;;;23.58;10.90;;;5.00;99.90;;;;;;5051121;28;20021;-64
2022/10/01 03:07:14;;;;;;;21.25;10.60;;;5.00;99.90;;;;;;5051523;28;20461;-69
2022/10/01 03:09:40;;;;;;;25.40;11.00;;;5.10;99.90;;;;;;5051762;28;20033;-65
2022/10/01 03:12:06;;;;;;;21.35;10.27;;;5.10;99.90;;;;;;5051815;28;20033;-66
2022/10/01 03:14:32;;;;;;;19.98;10.15;;;5.10;99.90;;;;;;5050456;28;20740;-65
2022/10/01 03:16:58;;;;;;;26.90;11.18;;;5.10;99.90;;;;;;5051802;28;20025;-65
2022/10/01 03:19:24;;;;;;;29.40;11.95;;;5.10;99.90;;;;;;5050285;28;20409;-65
2022/10/01 03:21:49;;;;;;;24.48;10.95;;;5.10;99.90;;;;;;5051628;28;20048;-64
2022/10/01 03:24:15;;;;;;;26.95;11.23;;;5.10;99.90;;;;;;5050835;28;20614;-66
2022/10/01 03:26:40;;;;;;;21.98;10.30;;;5.20;99.90;;;;;;5050814;28;20036;-65
2022/10/01 03:29:06;;;;;;;22.40;11.07;;;5.20;99.90;;;;;;5051475;28;20517;-65
2022/10/01 03:31:32;;;;;;;22.15;10.27;;;5.10;99.90;;;;;;5050632;28;20055;-64
2022/10/01 03:33:59;;;;;;;22.77;10.13;;;5.10;99.90;;;;;;5051433;28;20082;-65
2022/10/01 03:36:28;;;;;;;23.85;10.00;;;5.10;99.90;;;;;;5050473;28;20033;-65
2022/10/01 03:38:54;;;;;;;23.50;9.50;;;5.00;99.90;;;;;;5051372;28;20037;-64
2022/10/01 03:41:20;;;;;;;20.35;8.85;;;5.10;99.90;;;;;;5050374;28;20394;-65
2022/10/01 03:43:46;;;;;;;19.05;9.40;;;5.10;99.90;;;;;;5049893;28;20385;-64
2022/10/01 03:46:12;;;;;;;20.15;9.45;;;5.00;99.90;;;;;;5051009;28;20033;-64
2022/10/01 03:48:37;;;;;;;22.02;10.45;;;5.00;99.90;;;;;;5050218;28;20036;-66
2022/10/01 03:51:04;;;;;;;21.20;10.00;;;5.00;99.90;;;;;;5051383;28;20044;-63
2022/10/01 03:53:30;;;;;;;20.48;9.32;;;5.00;99.90;;;;;;5050313;28;20040;-64
2022/10/01 03:55:57;;;;;;;22.80;10.32;;;5.10;99.90;;;;;;5050959;28;20125;-64
2022/10/01 03:58:23;;;;;;;25.05;10.85;;;5.10;99.90;;;;;;5049917;28;20033;-64
2022/10/01 04:00:49;;;;;;;21.80;10.77;;;5.20;99.90;;;;;;5050848;28;20055;-64
2022/10/01 04:03:15;;;;;;;25.25;10.10;;;5.20;99.90;;;;;;5050661;28;20035;-69
2022/10/01 04:05:42;;;;;;;24.08;10.02;;;5.20;99.90;;;;;;5050273;28;20442;-66
2022/10/01 04:08:08;;;;;;;20.95;10.02;;;5.20;99.90;;;;;;5050718;28;20031;-64
2022/10/01 04:10:34;;;;;;;23.60;10.55;;;5.20;99.90;;;;;;5049828;28;20025;-64
2022/10/01 04:13:00;;;;;;;21.58;9.32;;;5.10;99.90;;;;;;5050249;28;20036;-66
2022/10/01 04:15:25;;;;;;;21.10;9.73;;;5.10;99.90;;;;;;5049469;28;20032;-65
2022/10/01 04:17:51;;;;;;;19.10;9.52;;;5.10;99.90;;;;;;5050605;28;20029;-66
2022/10/01 04:20:17;;;;;;;20.80;10.00;;;5.10;99.90;;;;;;5049999;28;20044;-70
2022/10/01 04:22:43;;;;;;;17.73;9.15;;;5.20;99.90;;;;;;5050169;28;20107;-64
2022/10/01 04:25:09;;;;;;;21.50;9.60;;;5.20;99.90;;;;;;5050290;28;20029;-64
2022/10/01 04:27:40;;;;;;;17.58;9.15;;;5.20;99.90;;;;;;5049568;28;20037;-64
2022/10/01 04:30:07;;;;;;;;;;;5.20;99.90;;;;;;5050776;28;20029;-66
2022/10/01 04:32:32;;;;;;;20.08;9.00;;;5.10;99.90;;;;;;5049149;28;19912;-65
2022/10/01 04:34:58;;;;;;;19.25;9.13;;;5.10;99.90;;;;;;5050297;28;20032;-64
2022/10/01 04:37:26;;;;;;;23.20;10.30;;;5.20;99.90;;;;;;5049323;28;20033;-64
2022/10/01 04:39:53;;;;;;;17.02;9.43;;;5.20;99.90;;;;;;5050026;28;20033;-64
2022/10/01 04:42:20;;;;;;;19.67;9.07;;;5.20;99.90;;;;;;5049599;28;20128;-69
2022/10/01 04:44:46;;;;;;;22.58;9.20;;;5.20;99.90;;;;;;5049687;28;20029;-66
2022/10/01 04:47:12;;;;;;;21.63;9.73;;;5.20;99.90;;;;;;5050050;28;20025;-65
2022/10/01 04:49:37;;;;;;;22.77;9.55;;;5.20;99.90;;;;;;5049103;28;20060;-65
2022/10/01 04:52:04;;;;;;;20.13;8.95;;;5.20;99.90;;;;;;5049869;28;20081;-64
2022/10/01 04:54:30;;;;;;;18.73;9.48;;;5.10;99.90;;;;;;5049323;28;20087;-64
2022/10/01 04:56:57;;;;;;;21.52;9.38;;;5.20;99.90;;;;;;5049642;28;20025;-65
2022/10/01 04:59:23;;;;;;;21.55;9.15;;;5.20;99.90;;;;;;5048735;28;20032;-64
2022/10/01 05:01:48;;;;;;;18.33;8.55;;;5.20;99.90;;;;;;5049664;28;20043;-64
2022/10/01 05:04:14;;;;;;;22.73;10.23;;;5.20;99.90;;;;;;5049465;28;20029;-64
2022/10/01 05:06:40;;;;;;;18.70;8.80;;;5.20;99.90;;;;;;5049205;28;20078;-66
2022/10/01 05:09:06;;;;;;;19.55;8.68;;;5.20;99.90;;;;;;5049776;28;20124;-66
2022/10/01 05:11:33;;;;;;;22.20;9.73;;;5.10;99.90;;;;;;5047019;28;20098;-65
2022/10/01 05:13:59;;;;;;;18.25;8.63;;;5.10;99.90;;;;;;5049037;28;20025;-64
2022/10/01 05:16:24;;;;;;;16.23;7.85;;;5.10;99.90;;;;;;5048542;28;20472;-64
2022/10/01 05:18:50;;;;;;;14.77;7.38;;;5.10;99.90;;;;;;5048913;28;20460;-65
2022/10/01 05:21:16;;;;;;;17.33;8.18;;;5.20;99.90;;;;;;5049410;28;20423;-65
2022/10/01 05:23:42;;;;;;;16.20;7.18;;;5.30;99.90;;;;;;5048646;28;20520;-64
2022/10/01 05:26:08;;;;;;;14.73;6.57;;;5.50;99.90;;;;;;5049470;28;20032;-64
2022/10/01 05:28:35;;;;;;;16.50;7.30;;;5.70;99.90;;;;;;5048211;28;20029;-65
2022/10/01 05:31:02;;;;;;;15.07;7.53;;;5.90;99.90;;;;;;5049271;28;20570;-65
2022/10/01 05:33:32;;;;;;;16.42;6.57;;;6.00;99.90;;;;;;5048551;28;20029;-64
2022/10/01 05:35:58;;;;;;;13.27;6.22;;;6.00;99.90;;;;;;5049368;28;20254;-64
2022/10/01 05:38:24;;;;;;;9.40;5.50;;;6.10;99.90;;;;;;5048427;28;20497;-69
2022/10/01 05:40:50;;;;;;;9.38;4.72;;;6.30;99.90;;;;;;5049201;28;20033;-65
2022/10/01 05:43:17;;;;;;;10.18;4.43;;;6.40;99.90;;;;;;5049241;28;20052;-65
2022/10/01 05:45:43;;;;;;;10.57;4.78;;;6.60;99.90;;;;;;5048467;28;20488;-64
2022/10/01 05:48:09;;;;;;;8.82;4.32;;;6.90;99.90;;;;;;5048832;28;20034;-64
2022/10/01 05:50:41;;;;;;;9.13;4.25;;;7.00;99.90;;;;;;5048342;28;20476;-65
2022/10/01 05:53:09;;;;;;;7.25;3.95;;;7.10;99.90;;;;;;5049220;28;20037;-63
2022/10/01 05:55:35;;;;;;;6.10;3.28;;;7.20;99.90;;;;;;5046955;28;20032;-66
2022/10/01 05:58:06;;;;;;;6.97;2.90;;;7.30;99.90;;;;;;5048679;28;20037;-64
2022/10/01 06:00:34;;;;;;;9.15;3.47;;;7.40;99.90;;;;;;5048231;28;20044;-65
2022/10/01 06:03:01;;;;;;;4.82;2.88;;;7.50;99.90;;;;;;5049031;28;20021;-65
2022/10/01 06:05:28;;;;;;;5.50;3.25;;;7.60;99.90;;;;;;5047704;28;20044;-65
2022/10/01 06:07:55;;;;;;;6.82;2.72;;;7.60;99.90;;;;;;5049230;28;20036;-64
2022/10/01 06:10:21;;;;;;;6.47;2.97;;;7.70;99.90;;;;;;5048879;28;20037;-66
2022/10/01 06:12:47;;;;;;;5.90;2.75;;;7.80;99.90;;;;;;5048364;28;20044;-64
2022/10/01 06:15:13;;;;;;;5.97;2.45;;;7.90;99.90;;;;;;5048910;28;20029;-65
2022/10/01 06:17:43;;;;;;;5.07;2.40;;;8.00;99.90;;;;;;5046733;28;20593;-64
2022/10/01 06:20:14;;;;;;;5.03;2.60;;;8.20;99.90;;;;;;5048459;28;20049;-64
2022/10/01 06:22:41;;;;;;;3.25;1.52;;;8.30;99.90;;;;;;5048024;28;20041;-65
2022/10/01 06:25:13;;;;;;;6.05;2.50;;;8.30;99.90;;;;;;5049005;28;20024;-63
2022/10/01 06:27:39;;;;;;;5.30;2.40;;;8.40;99.90;;;;;;5048136;28;20036;-64
2022/10/01 06:30:06;;;;;;;4.22;2.33;;;8.30;99.90;;;;;;5048641;28;20036;-66
2022/10/01 06:32:32;;;;;;;6.57;2.20;;;8.40;99.90;;;;;;5048029;28;20040;-65
2022/10/01 06:34:58;;;;;;;4.00;2.38;;;8.50;99.90;;;;;;5048442;28;20033;-65
2022/10/01 06:37:24;;;;;;;4.13;2.00;;;8.60;99.90;;;;;;5048443;28;20351;-69
2022/10/01 06:39:49;;;;;;;4.18;1.90;;;8.70;99.90;;;;;;5046689;28;20524;-64
2022/10/01 06:42:15;;;;;;;3.33;1.92;;;8.70;99.90;;;;;;5052216;28;20124;-66
2022/10/01 06:44:41;;;;;;;7.18;2.15;;;8.80;99.90;;;;;;5051740;28;20035;-64
2022/10/01 06:47:07;;;;;;;3.72;1.70;;;8.90;99.90;;;;;;5052282;28;20029;-64
2022/10/01 06:49:33;;;;;;;9.35;2.10;;;9.00;99.90;;;;;;5051110;28;20025;-64
2022/10/01 06:54:44;;;;;;;4.00;1.90;;;9.20;99.90;;;;;;5051380;28;20047;-64
2022/10/01 06:57:09;;;;;;;3.03;1.90;;;9.30;99.90;;;;;;5052362;28;20033;-64
2022/10/01 06:59:36;;;;;;;3.55;2.03;;;9.30;99.90;;;;;;5051025;28;20618;-66
2022/10/01 07:02:02;;;;;;;5.45;2.25;;;9.30;99.90;;;;;;5051364;28;20032;-64
2022/10/01 07:04:28;;;;;;;6.70;2.80;;;9.20;99.90;;;;;;5050729;28;20033;-69
2022/10/01 07:06:54;;;;;;;17.65;2.30;;;9.30;99.90;;;;;;5051808;28;20028;-63
2022/10/01 07:09:26;;;;;;;2.80;2.05;;;9.30;99.90;;;;;;5051647;28;20521;-64
2022/10/01 07:11:56;;;;;;;4.13;2.58;;;9.30;99.90;;;;;;5051187;28;20572;-66
2022/10/01 07:14:21;;;;;;;4.18;2.28;;;9.40;99.90;;;;;;5051415;28;20032;-63
2022/10/01 07:16:47;;;;;;;4.60;2.63;;;9.40;99.90;;;;;;5050517;28;20032;-65
2022/10/01 07:19:13;;;;;;;6.45;2.80;;;9.40;99.90;;;;;;5050014;28;20049;-65
2022/10/01 07:21:38;;;;;;;8.15;3.10;;;9.40;99.90;;;;;;5050791;28;20033;-64
2022/10/01 07:24:04;;;;;;;7.70;3.08;;;9.30;99.90;;;;;;5051586;28;20029;-63
2022/10/01 07:26:29;;;;;;;4.22;2.75;;;9.20;99.90;;;;;;5050652;28;20116;-69
2022/10/01 07:28:55;;;;;;;5.63;2.88;;;9.10;99.90;;;;;;5051102;28;20064;-63
2022/10/01 07:31:22;;;;;;;7.68;3.20;;;9.00;99.90;;;;;;5051246;28;20115;-66
2022/10/01 07:33:48;;;;;;;8.50;3.20;;;9.00;99.90;;;;;;5050724;28;20024;-65
2022/10/01 07:36:14;;;;;;;6.72;3.55;;;9.10;99.90;;;;;;5051035;28;20107;-64
2022/10/01 07:38:42;;;;;;;6.20;3.22;;;9.10;99.90;;;;;;5050493;28;20039;-66
2022/10/01 07:41:09;;;;;;;4.82;2.88;;;9.10;99.90;;;;;;5051132;28;20116;-64
2022/10/01 07:43:35;;;;;;;5.47;2.70;;;9.10;99.90;;;;;;5048306;28;20771;-65
2022/10/01 07:46:02;;;;;;;4.78;2.78;;;9.00;99.90;;;;;;5050842;28;20036;-65
2022/10/01 07:48:27;;;;;;;7.35;3.47;;;9.00;99.90;;;;;;5050812;28;20053;-68
2022/10/01 07:50:53;;;;;;;7.85;3.45;;;9.00;99.90;;;;;;5049760;28;20071;-64
2022/10/01 07:53:19;;;;;;;7.32;3.67;;;9.00;99.90;;;;;;5051065;28;20061;-65
2022/10/01 07:55:45;;;;;;;9.60;4.10;;;9.00;99.90;;;;;;5050162;28;20029;-64
2022/10/01 07:58:11;;;;;;;9.13;4.25;;;9.00;99.90;;;;;;5049981;28;20044;-64
2022/10/01 08:00:37;;;;;;;7.70;3.70;;;9.00;99.90;;;;;;5050327;28;20350;-63
2022/10/01 08:03:04;;;;;;;6.60;3.63;;;8.90;99.90;;;;;;5051113;28;20036;-65
2022/10/01 08:05:35;;;;;;;9.50;3.65;;;8.90;99.90;;;;;;5050883;28;20029;-69
2022/10/01 08:08:03;;;;;;;8.18;3.83;;;9.00;99.90;;;;;;5050635;28;20056;-65
2022/10/01 08:10:30;;;;;;;6.22;3.50;;;9.00;99.90;;;;;;5050678;28;20028;-69
2022/10/01 08:13:07;;;;;;;5.53;3.17;;;9.00;99.90;;;;;;5050177;28;20163;-65
2022/10/01 08:15:33;;;;;;;5.05;3.03;;;9.10;99.90;;;;;;5048118;28;20025;-69
2022/10/01 08:18:03;;;;;;;6.65;3.45;;;9.10;99.90;;;;;;5050917;28;20373;-64
2022/10/01 08:20:29;;;;;;;6.78;3.10;;;9.00;99.90;;;;;;5050443;28;20041;-64
2022/10/01 08:23:01;;;;;;;7.68;3.40;;;9.00;99.90;;;;;;5049414;28;20128;-64
2022/10/01 08:25:27;;;;;;;5.25;3.00;;;9.00;99.90;;;;;;5050412;28;20354;-62
2022/10/01 08:27:52;;;;;;;5.20;3.40;;;9.10;99.90;;;;;;5049654;28;20043;-65
2022/10/01 08:30:18;;;;;;;7.43;3.22;;;9.10;99.90;;;;;;5050274;28;20021;-64
2022/10/01 08:32:44;;;;;;;7.10;3.50;;;9.10;99.90;;;;;;5049187;28;20540;-64
2022/10/01 08:35:10;;;;;;;7.85;3.58;;;9.10;99.90;;;;;;5050279;28;20100;-64
2022/10/01 08:37:36;;;;;;;7.20;3.42;;;9.10;99.90;;;;;;5049376;28;20033;-66
2022/10/01 08:40:02;;;;;;;6.13;3.63;;;9.10;99.90;;;;;;5050102;28;20579;-64
2022/10/01 08:42:36;;;;;;;7.18;3.53;;;9.10;99.90;;;;;;5050021;28;20037;-65
2022/10/01 08:45:09;;;;;;;10.52;3.35;;;9.00;99.90;;;;;;5050056;28;20033;-67
2022/10/01 08:47:38;;;;;;;7.85;3.58;;;9.10;99.90;;;;;;5028227;28;20048;-69
2022/10/01 08:50:20;;;;;;;8.03;3.50;;;9.10;99.90;;;;;;5031808;28;20069;-64
2022/10/01 08:52:53;;;;;;;6.28;3.50;;;9.10;99.90;;;;;;5029209;28;20068;-66
2022/10/01 08:55:23;;;;;;;6.68;3.28;;;9.10;99.90;;;;;;5030052;28;20053;-64
2022/10/01 08:57:54;;;;;;;9.98;3.58;;;9.20;99.90;;;;;;5029304;28;20079;-64
2022/10/01 09:00:20;;;;;;;7.00;3.55;;;9.20;99.90;;;;;;5029997;28;20333;-64
2022/10/01 09:02:46;;;;;;;7.47;3.95;;;9.20;99.90;;;;;;5028255;28;20048;-66
2022/10/01 09:05:23;;;;;;;7.65;3.90;;;9.20;99.90;;;;;;5029631;28;20032;-64
2022/10/01 09:07:58;;;;;;;7.90;2.78;;;9.20;99.90;;;;;;5029107;28;20392;-64
2022/10/01 09:10:32;;;;;;;6.50;3.70;;;9.30;99.90;;;;;;5030026;28;20029;-65
2022/10/01 09:13:25;;;;;;;10.10;3.90;;;9.30;99.90;;;;;;5043036;28;20060;-64
2022/10/01 09:16:41;;;;;;;9.40;3.40;;;9.20;99.90;;;;;;5028966;28;20115;-66
2022/10/01 09:19:12;;;;;;;5.70;3.53;;;9.30;99.90;;;;;;5029401;28;20081;-66
2022/10/01 09:21:40;;;;;;;8.35;4.03;;;9.30;99.90;;;;;;5028721;28;20033;-66
2022/10/01 09:24:20;;;;;;;6.85;3.90;;;9.40;99.90;;;;;;5029275;28;20073;-64
2022/10/01 09:26:50;;;;;;;8.70;3.90;;;9.40;99.90;;;;;;5048084;28;20412;-64
2022/10/01 09:29:34;;;;;;;8.07;3.72;;;9.40;99.90;;;;;;5049223;28;20525;-64
2022/10/01 09:32:02;;;;;;;6.05;3.45;;;9.40;99.90;;;;;;5048977;28;20037;-65
2022/10/01 09:34:32;;;;;;;10.18;3.72;;;9.40;99.90;;;;;;5049253;28;20025;-63
2022/10/01 09:37:20;;;;;;;5.82;3.42;;;9.40;99.90;;;;;;5047306;28;20029;-65
2022/10/01 09:40:11;;;;;;;6.53;2.90;;;9.40;99.90;;;;;;5048570;28;20037;-64
2022/10/01 09:42:37;;;;;;;7.15;3.40;;;9.40;99.90;;;;;;5048447;28;20545;-70
2022/10/01 09:45:04;;;;;;;6.20;3.38;;;9.40;99.90;;;;;;5048836;28;20112;-65
2022/10/01 09:47:32;;;;;;;7.47;3.47;;;9.40;99.90;;;;;;5047866;28;20116;-64
2022/10/01 09:50:00;;;;;;;6.63;3.75;;;9.40;99.90;;;;;;5048383;28;20093;-64
2022/10/01 09:52:34;;;;;;;8.05;4.00;;;9.50;99.90;;;;;;5049173;28;20518;-64
2022/10/01 09:55:18;;;;;;;10.05;4.18;;;9.50;99.90;;;;;;5048281;28;20495;-65
2022/10/01 09:58:10;;;;;;;7.70;3.72;;;9.50;99.90;;;;;;5048414;28;20036;-64
2022/10/01 10:00:37;;;;;;;9.98;3.00;;;9.60;99.90;;;;;;5049074;28;20021;-70
2022/10/01 10:03:03;;;;;;;6.25;3.20;;;9.50;99.90;;;;;;5048508;28;20494;-65
2022/10/01 10:05:40;;;;;;;7.78;3.70;;;9.60;99.90;;;;;;5048756;28;20028;-64
2022/10/01 10:08:26;;;;;;;9.50;4.57;;;9.60;99.90;;;;;;5049069;28;20032;-66
2022/10/01 10:11:10;;;;;;;8.80;3.88;;;9.60;99.90;;;;;;5048229;28;20017;-64
2022/10/01 10:13:47;;;;;;;7.63;3.90;;;9.60;99.90;;;;;;5048569;28;20029;-66
2022/10/01 10:16:25;;;;;;;8.60;4.10;;;9.60;99.90;;;;;;5052609;28;20033;-65
2022/10/01 10:18:55;;;;;;;7.60;3.88;;;9.60;99.90;;;;;;5051772;28;20033;-65
2022/10/01 10:21:26;;;;;;;5.55;3.22;;;9.60;99.90;;;;;;5052815;28;20040;-65
2022/10/01 10:24:00;;;;;;;6.45;3.92;;;9.60;99.90;;;;;;5051922;28;20037;-63
2022/10/01 10:26:37;;;;;;;5.70;3.42;;;9.60;99.90;;;;;;5052736;28;20040;-65
2022/10/01 10:29:06;;;;;;;6.18;3.42;;;9.60;99.90;;;;;;5051769;28;20021;-64
2022/10/01 10:31:44;;;;;;;5.53;2.78;;;9.70;99.90;;;;;;5052319;28;20406;-64
2022/10/01 10:34:34;;;;;;;5.60;2.80;;;9.70;99.90;;;;;;5052502;28;20038;-66
2022/10/01 10:37:06;;;;;;;8.85;3.60;;;9.60;99.90;;;;;;5051851;28;20323;-65
2022/10/01 10:39:37;;;;;;;7.75;3.75;;;9.60;99.90;;;;;;5052891;28;20158;-64
2022/10/01 10:42:05;;;;;;;7.32;3.67;;;9.60;99.90;;;;;;5051576;28;20036;-64
2022/10/01 10:44:37;;;;;;;6.68;3.78;;;9.70;99.90;;;;;;5052383;28;20040;-66
2022/10/01 10:47:10;;;;;;;6.53;3.78;;;9.70;99.90;;;;;;5051563;28;20029;-64
2022/10/01 10:49:58;;;;;;;6.50;3.33;;;9.70;99.90;;;;;;5052104;28;20102;-65
2022/10/01 10:52:35;;;;;;;7.35;2.85;;;9.70;99.90;;;;;;5052063;28;20048;-62
2022/10/01 10:55:27;;;;;;;7.88;2.80;;;9.70;99.90;;;;;;5051545;28;20581;-65
2022/10/01 10:57:52;;;;;;;4.70;2.60;;;9.70;99.90;;;;;;5051037;28;20021;-64
2022/10/01 11:00:23;;;;;;;4.40;2.25;;;9.70;99.90;;;;;;5051814;28;20461;-62
2022/10/01 11:02:58;;;;;;;5.47;2.70;;;9.70;99.90;;;;;;5051235;28;20025;-63
2022/10/01 11:05:30;;;;;;;4.30;2.50;;;9.70;99.90;;;;;;5052010;28;20043;-64
2022/10/01 11:08:10;;;;;;;7.50;2.55;;;9.70;99.90;;;;;;5050982;28;20057;-64
2022/10/01 11:10:38;;;;;;;4.88;2.13;;;9.70;99.90;;;;;;5052239;28;20097;-65
2022/10/01 11:13:24;;;;;;;6.13;2.55;;;9.80;99.90;;;;;;5051179;28;20040;-64
2022/10/01 11:16:04;;;;;;;5.95;2.47;;;9.80;99.90;;;;;;5050868;28;20106;-62
2022/10/01 11:18:54;;;;;;;4.82;2.55;;;9.90;99.90;;;;;;5051830;28;20741;-64
2022/10/01 11:21:47;;;;;;;4.38;2.60;;;10.00;99.90;;;;;;5051684;28;20048;-64
2022/10/01 11:24:41;;;;;;;7.15;2.22;;;10.00;99.90;;;;;;5051660;28;20055;-64
2022/10/01 11:27:18;;;;;;;4.63;2.13;;;10.10;99.90;;;;;;5050309;28;20056;-63
2022/10/01 11:30:13;;;;;;;5.00;2.58;;;10.20;99.90;;;;;;5051076;28;20043;-69
2022/10/01 11:32:54;;;;;;;3.75;2.00;;;10.30;99.90;;;;;;5050511;28;20040;-63
2022/10/01 11:35:45;;;;;;;4.80;2.47;;;10.50;99.90;;;;;;5051765;28;20036;-66
2022/10/01 11:38:41;;;;;;;4.15;2.13;;;10.60;99.90;;;;;;5051399;28;20056;-64
2022/10/01 11:41:58;;;;;;;4.28;2.38;;;10.70;99.90;;;;;;5050784;28;20099;-64
2022/10/01 11:44:32;;;;;;;3.58;1.98;;;10.80;99.90;;;;;;5025355;28;20050;-64
2022/10/01 11:47:00;;;;;;;4.90;1.88;;;10.90;99.90;;;;;;5039860;28;20029;-64
2022/10/01 11:49:39;;;;;;;3.83;1.73;;;10.90;99.90;;;;;;5051189;28;20028;-64
2022/10/01 11:52:15;;;;;;;2.95;1.60;;;10.90;99.90;;;;;;5050346;28;20036;-64
2022/10/01 11:58:49;;;;;;;4.25;1.80;;;10.80;99.90;;;;;;5051065;28;20039;-65
2022/10/01 12:00:36;;;;;;;;;;;10.60;99.90;;;;;;5051107;28;20036;-65
2022/10/01 12:03:10;;;;;;;5.75;1.40;;;10.60;99.90;;;;;;5049542;28;19917;-64
2022/10/01 12:05:37;;;;;;;2.08;1.30;;;10.60;99.90;;;;;;5050890;28;20029;-62
2022/10/01 12:08:19;;;;;;;2.45;1.55;;;10.60;99.90;;;;;;5048825;28;20029;-64
2022/10/01 12:11:15;;;;;;;3.05;1.75;;;10.60;99.90;;;;;;5050461;28;20033;-68
2022/10/01 12:13:51;;;;;;;2.95;1.63;;;10.70;99.90;;;;;;5049398;28;20558;-65
2022/10/01 12:16:21;;;;;;;2.38;1.30;;;10.70;99.90;;;;;;5050709;28;20064;-63
2022/10/01 12:18:50;;;;;;;5.57;1.33;;;10.70;99.90;;;;;;5049881;28;20029;-68
2022/10/01 12:21:28;;;;;;;2.05;1.45;;;10.70;99.90;;;;;;5050540;28;20036;-65
2022/10/01 12:24:21;;;;;;;1.80;1.23;;;10.80;99.90;;;;;;5049795;28;20488;-64
2022/10/01 12:27:34;;;;;;;5.68;1.25;;;10.80;99.90;;;;;;5050197;28;20033;-68
2022/10/01 12:30:28;;;;;;;4.20;1.63;;;10.80;99.90;;;;;;5039672;28;20078;-63
2022/10/01 12:33:03;;;;;;;3.65;1.30;;;10.80;99.90;;;;;;5049336;28;20119;-64
2022/10/01 12:35:49;;;;;;;2.00;1.20;;;10.80;99.90;;;;;;5050336;28;20033;-64
2022/10/01 12:38:37;;;;;;;2.63;1.30;;;10.90;99.90;;;;;;5049318;28;20492;-65
2022/10/01 12:41:38;;;;;;;1.95;1.08;;;10.90;99.90;;;;;;5049309;28;20075;-65
2022/10/01 12:44:35;;;;;;;2.10;1.10;;;10.90;99.90;;;;;;5048143;28;20029;-61
2022/10/01 12:47:14;;;;;;;3.10;1.50;;;10.90;99.90;;;;;;5039424;28;20049;-65
2022/10/01 12:50:09;;;;;;;5.72;1.40;;;11.00;99.90;;;;;;5030127;28;20380;-64
2022/10/01 12:52:47;;;;;;;2.25;1.35;;;11.00;99.90;;;;;;5030176;28;20041;-63
2022/10/01 12:55:45;;;;;;;2.17;1.40;;;11.00;99.90;;;;;;5030019;28;20034;-64
2022/10/01 12:58:32;;;;;;;5.05;1.67;;;11.00;99.90;;;;;;5029320;28;20033;-65
2022/10/01 13:01:03;;;;;;;6.60;1.77;;;11.00;99.90;;;;;;5029138;28;20084;-63
2022/10/01 13:04:16;;;;;;;3.00;1.30;;;11.00;99.90;;;;;;5034473;28;20032;-63
2022/10/01 13:07:06;;;;;;;2.67;1.75;;;11.10;99.90;;;;;;5049769;28;20103;-64
2022/10/01 13:09:32;;;;;;;2.80;1.30;;;11.10;99.90;;;;;;5048385;28;20543;-64
2022/10/01 13:12:26;;;;;;;3.08;1.55;;;11.10;99.90;;;;;;5048885;28;20119;-64
2022/10/01 13:14:52;;;;;;;2.75;1.35;;;11.20;99.90;;;;;;5049143;28;20488;-68
2022/10/01 13:17:41;;;;;;;2.40;1.55;;;11.20;99.90;;;;;;5049541;28;20056;-64
2022/10/01 13:20:07;;;;;;;2.80;1.30;;;11.40;99.90;;;;;;5048221;28;20061;-64
2022/10/01 13:23:05;;;;;;;3.22;1.23;;;11.60;99.90;;;;;;5049387;28;20127;-64